AirNav   Pilot Hours Calculator
 
 423 users online  

PN64 Hilling International Airport
Huntingdon, Pennsylvania, USA

GOING TO HUNTINGDON?


FAA INFORMATION EFFECTIVE 09 SEPTEMBER 2021

Location

FAA Identifier: PN64
Lat/Long: 40-30-08.6000N 077-56-21.7000W
40-30.143333N 077-56.361667W
40.5023889,-77.9393611
(estimated)
Elevation: 1400 ft. / 427 m (estimated)
From city: 4 miles E of HUNTINGDON, PA
Time zone: UTC -4 (UTC -5 during Standard Time)
Zip code: 16652

Airport Operations

Airport use: Private use. Permission required prior to landing
Activation date: 05/2003
Control tower: no
ARTCC: CLEVELAND CENTER
FSS: ALTOONA FLIGHT SERVICE STATION
Attendance: UNATNDD
Wind indicator: yes
Segmented circle: no

Airport Communications

WX AWOS-3PT at RVL (18 nm NE): 123.85 (717-667-3993)

Nearby radio navigation aids

VOR radial/distance  VOR name  Freq  Var
PSBr184/25.0PHILIPSBURG VORTAC115.5010W
THSr008/34.2ST THOMAS VORTAC115.0007W
RECr103/36.9REVLOC VOR/DME110.6009W

Airport Services

Runway Information

Runway 2/20

Dimensions: 1280 x 80 ft. / 390 x 24 m
Surface: turf
RUNWAY 2  RUNWAY 20
Traffic pattern: leftleft
Displaced threshold: 15 ft.70 ft.
Obstructions: trees, 200 ft. from runwayplines, 120 ft. from runway

Airport Ownership and Management from official FAA records

Ownership: Privately-owned
Owner: WM. C. HILLING
9181 SCHOOLHOUSE HOLLOW RD
HUNTINGDON, PA 16652
Phone 814-643-6968
Manager: WM. C. HILLING
9181 SCHOOLHOUSE HOLLOW RD
HUNTINGDON, PA 16652
Phone 814-643-6968

Airport Operational Statistics

Aircraft based on the field: 1
Single engine airplanes: 1
    

Additional Remarks

AIRPORT NOT TO BE CHARTED DUE TO PLINES.
FOR CD CTC JOHNSTOWN APCH AT 814-532-5960, WHEN APCH CLSD CTC CLEVELAND ARTCC AT 440-774-0234.

Instrument Procedures

There are no published instrument procedures at PN64.

Some nearby airports with instrument procedures:

KRVL - Mifflin County Airport (18 nm NE)
KUNV - University Park Airport (21 nm N)
KAOO - Altoona-Blair County Airport (21 nm SW)
N96 - Bellefonte Airport (24 nm N)
KPSB - Mid-State Airport (24 nm N)
 
Loc | Ops | Rwys | IFR | FBO | Links
Com | Nav | Svcs | Stats | Notes
Area around PN64 (Hilling International Airport)
 
Road maps at: MapQuest Bing Google
 
Aerial photo
WARNING: Photo may not be current or correct
Aerial photo of PN64 (Hilling International Airport)
Photo by Craig Hilling
Photo taken 01-Aug-2006

Do you have a better or more recent aerial photo of Hilling International Airport that you would like to share? If so, please send us your photo.

 
Sectional chart

 
Airport distance calculator
Flying to Hilling International Airport? Find the distance to fly.

From to PN64

Sunrise and sunset
Times for 22-Sep-2021
 Local
(UTC-4)
 Zulu
(UTC)
Morning civil twilight06:3310:33
Sunrise07:0011:00
Sunset19:0923:09
Evening civil twilight19:3623:36

Current date and time
Zulu (UTC)  22-Sep-2021 07:01:05
Local (UTC-4)  22-Sep-2021 03:01:05
 
METAR
KRVL 
18nm NE 
212135Z AUTO 11003KT 8SM SCT038 BKN048 22/19 A3021 RMK AO2
KAOO 
21nm SW 
220653Z AUTO 18008KT 10SM -RA SCT015 BKN045 BKN120 19/17 A3011 RMK AO2 SLP189 P0002 T01890167
KUNV 
21nm N 
220153Z 00000KT 6SM BR BKN015 18/17 A3018
TAF
KAOO 
21nm SW 
220531Z 2206/2306 16006KT 6SM -RA BKN020 FM221000 17009KT 5SM -RA BR OVC010 FM221100 17010KT 4SM -RA OVC009 WS020/17039KT FM221800 15013G20KT 3SM -RA OVC010 WS020/17037KT FM222200 16010G20KT 5SM -RA SCT002 OVC005 WS020/15038KT
KUNV 
21nm N 
220531Z 2206/2306 17005KT 6SM -RA BR BKN018 FM221000 17010KT 4SM -RA OVC009 WS019/17035KT FM221800 15013G20KT 3SM -RA OVC008 WS020/16039KT FM222200 16010G20KT 5SM -RA SCT002 OVC005 WS020/14035KT
NOTAMs
Click for the latest NOTAMs
NOTAMs are issued by the DoD/FAA and will open in a separate window not controlled by AirNav.

 

 
 

Would you like to see your business listed on this page?

 If your business provides an interesting product or service to pilots, flight crews, aircraft, or users of the Hilling International Airport, you should consider listing it here.  To start the listing process, click on the button below
 
Add a business
 

Other Pages about Hilling International Airport

Update a link
 
Copyright © AirNav, LLC. All rights reserved. Privacy Policy  Contact